Flight Track Log - Related Links

Times and Time Zones

All times are in EDT time to prevent confusion due to time zone crossing. See the SKW6448 flight status page for this flight to view local times or setup timezone preferences in your user account.

Time Position Orientation Groundspeed Altitude Reporting Facility
EDT Latitude Longitude Course Direction KTS MPH feet Rate Location/Type
Mon 10:51:21 PM 33.9333 -118.4333 90° East 169 194 1,500  Level Southern California TRACON
Mon 10:52:21 PM 33.9000 -118.5000 239° Southwest 255 293 2,800 1,985 Climbing Southern California TRACON
Mon 10:53:00 PM 33.7633 -118.6177 132° Southeast  Level FlightAware Approximate
Mon 10:53:37 PM 33.8172 -118.5356 200° South 268 308 6,000  Level Los Angeles Center
Mon 10:54:00 PM 33.6815 -118.5058 101° East  Level FlightAware Approximate
Mon 10:54:38 PM 33.7442 -118.5264 174° South 267 307 8,400  Level Los Angeles Center
Mon 10:55:00 PM 33.6452 -118.3629 116° Southeast  Level FlightAware Approximate
Mon 10:55:40 PM 33.6842 -118.4800 147° Southeast 285 328 10,300  Level Los Angeles Center
Mon 10:56:00 PM 33.6333 -118.2157 90° East  Level FlightAware Approximate
Mon 10:56:42 PM 33.6497 -118.3628 109° East 313 360 12,300  Level Los Angeles Center
Mon 10:57:43 PM 33.6439 -118.2519 94° East 335 386 14,100 1,707 Climbing Los Angeles Center
Mon 10:58:45 PM 33.6447 -118.1381 89° East 346 398 15,800 1,548 Climbing Los Angeles Center
Mon 10:59:47 PM 33.6444 -118.0164 90° East 361 415 17,300 1,333 Climbing Los Angeles Center
Mon 11:01:00 PM 33.6447 -117.8931 90° East 370 426 18,800 1,456 Climbing Los Angeles Center
Mon 11:02:03 PM 33.6450 -117.7111 90° East 387 445 20,600 1,452 Climbing Los Angeles Center
Mon 11:03:04 PM 33.6428 -117.5783 91° East 399 459 21,800 1,171 Climbing Los Angeles Center
Mon 11:04:06 PM 33.6425 -117.4400 90° East 412 474 23,000 882 Climbing Los Angeles Center
Mon 11:05:20 PM 33.6417 -117.3058 90° East 407 468 23,800 882 Climbing Los Angeles Center
Mon 11:06:22 PM 33.6414 -117.1486 90° East 396 456 25,000 871 Climbing Los Angeles Center
Mon 11:07:24 PM 33.6400 -117.0103 91° East 413 475 25,600 1,073 Climbing Los Angeles Center
Mon 11:08:25 PM 33.6369 -116.8472 91° East 410 472 27,200 1,366 Climbing Los Angeles Center
Mon 11:09:27 PM 33.6364 -116.7242 90° East 421 484 28,400 1,016 Climbing Los Angeles Center
Mon 11:10:29 PM 33.6350 -116.5833 91° East 422 486 29,300 871 Climbing Los Angeles Center
Mon 11:11:31 PM 33.6333 -116.4097 91° East 432 497 30,200 780 Climbing Los Angeles Center
Mon 11:12:32 PM 33.6311 -116.2614 91° East 441 507 30,900 878 Climbing Los Angeles Center
Mon 11:13:34 PM 33.6281 -116.1078 91° East 460 529 32,000 919 Climbing Los Angeles Center
Mon 11:14:36 PM 33.6239 -115.9569 92° East 453 521 32,800 1,113 Climbing Los Angeles Center
Mon 11:15:38 PM 33.6042 -115.8119 99° East 439 505 34,300 1,073 Climbing Los Angeles Center
Mon 11:16:39 PM 33.5828 -115.6681 100° East 439 505 35,000 829 Climbing Los Angeles Center
Mon 11:17:41 PM 33.5606 -115.5239 100° East 439 505 36,000 726 Climbing Los Angeles Center
Mon 11:18:43 PM 33.5389 -115.3800 100° East 438 504 36,500 537 Climbing Los Angeles Center
Mon 11:19:44 PM 33.5128 -115.2072 100° East 441 507 37,100 585 Climbing Los Angeles Center
Mon 11:20:46 PM 33.4911 -115.0633 100° East 441 507 37,700 484 Climbing Los Angeles Center
Mon 11:21:48 PM 33.4689 -114.9175 100° East 444 511 38,100 353 Climbing Los Angeles Center
Mon 11:23:02 PM 33.4481 -114.7731 100° East 439 505 38,500 353 Climbing Los Angeles Center
Mon 11:24:04 PM 33.4186 -114.6003 101° East 440 506 38,900 242 Climbing Los Angeles Center
Mon 11:25:06 PM 33.3967 -114.4558 100° East 440 506 39,000 61 Climbing Los Angeles Center
Mon 11:25:42 PM 33.3808 -114.3450 100° East 445 512 39,000  Level Albuquerque Center
Mon 11:26:44 PM 33.3575 -114.1956 101° East 454 522 39,000  Level Albuquerque Center
Mon 11:27:46 PM 33.3333 -114.0453 101° East 459 528 39,000  Level Albuquerque Center
Mon 11:28:47 PM 33.3089 -113.8947 101° East 461 531 39,000  Level Albuquerque Center
Mon 11:29:49 PM 33.2886 -113.7417 99° East 464 534 39,000  Level Albuquerque Center
Mon 11:30:51 PM 33.2736 -113.5875 97° East 467 537 39,000  Level Albuquerque Center
Mon 11:31:52 PM 33.2572 -113.4339 97° East 466 536 39,000  Level Albuquerque Center
Mon 11:32:54 PM 33.2417 -113.2778 97° East 469 540 39,000  Level Albuquerque Center
Mon 11:33:55 PM 33.2203 -113.0931 98° East 468 539 39,000  Level Albuquerque Center
Mon 11:34:57 PM 33.2036 -112.9383 97° East 468 539 39,000  Level Albuquerque Center
Mon 11:35:59 PM 33.1867 -112.7844 97° East 467 537 39,000  Level Albuquerque Center
Mon 11:37:00 PM 33.1694 -112.6314 98° East 465 535 39,000  Level Albuquerque Center
Mon 11:38:02 PM 33.1508 -112.4797 98° East 464 534 39,000  Level Albuquerque Center
Mon 11:39:03 PM 33.1331 -112.3261 98° East 465 535 39,000  Level Albuquerque Center
Mon 11:40:05 PM 33.1156 -112.1767 98° East 464 534 39,000  Level Albuquerque Center
Mon 11:41:07 PM 33.0981 -112.0250 98° East 464 534 39,000  Level Albuquerque Center
Mon 11:42:08 PM 33.0764 -111.8428 98° East 465 535 39,000  Level Albuquerque Center
Mon 11:43:10 PM 33.0597 -111.6928 98° East 462 532 39,000  Level Albuquerque Center
Mon 11:44:11 PM 33.0417 -111.5422 98° East 462 532 39,000  Level Albuquerque Center
Mon 11:45:13 PM 33.0225 -111.3925 99° East 461 531 39,000  Level Albuquerque Center
Mon 11:46:14 PM 33.0047 -111.2414 98° East 463 533 39,000  Level Albuquerque Center
Mon 11:47:16 PM 32.9853 -111.0906 99° East 464 534 39,000  Level Albuquerque Center
Mon 11:48:17 PM 32.9664 -110.9403 98° East 462 532 39,000  Level Albuquerque Center
Mon 11:49:19 PM 32.9436 -110.7600 99° East 460 529 39,000  Level Albuquerque Center
Mon 11:50:20 PM 32.9247 -110.6161 99° East 462 532 39,000  Level Albuquerque Center
Mon 11:51:22 PM 32.9053 -110.4669 99° East 460 529 39,000  Level Albuquerque Center
Mon 11:52:23 PM 32.8853 -110.3161 99° East 461 531 39,000  Level Albuquerque Center
Mon 11:53:25 PM 32.8658 -110.1667 99° East 460 529 39,000  Level Albuquerque Center
Mon 11:54:26 PM 32.8397 -109.9869 100° East 464 534 39,000  Level Albuquerque Center
Mon 11:55:27 PM 32.8192 -109.8383 99° East 461 531 39,000  Level Albuquerque Center
Mon 11:56:29 PM 32.8006 -109.6917 99° East 456 525 39,000  Level Albuquerque Center
Mon 11:57:30 PM 32.7794 -109.5439 100° East 456 525 39,000  Level Albuquerque Center
Mon 11:58:32 PM 32.7586 -109.3953 99° East 457 526 39,000  Level Albuquerque Center
Mon 11:59:33 PM 32.7369 -109.2475 100° East 458 527 39,000  Level Albuquerque Center
Tue 12:00:34 AM 32.7156 -109.1011 100° East 458 527 39,000  Level Albuquerque Center
Tue 12:01:36 AM 32.6906 -108.9253 100° East 458 527 39,000  Level Albuquerque Center
Tue 12:02:37 AM 32.6689 -108.7775 100° East 461 531 39,000  Level Albuquerque Center
Tue 12:03:38 AM 32.6483 -108.6322 100° East 455 524 39,000  Level Albuquerque Center
Tue 12:04:40 AM 32.6275 -108.4850 99° East 456 525 39,000  Level Albuquerque Center
Tue 12:05:41 AM 32.6047 -108.3394 100° East 454 522 39,000  Level Albuquerque Center
Tue 12:06:42 AM 32.5831 -108.1933 100° East 452 520 39,000  Level Albuquerque Center
Tue 12:07:44 AM 32.5611 -108.0469 100° East 454 522 39,000  Level Albuquerque Center
Tue 12:08:45 AM 32.5344 -107.8708 100° East 455 524 39,000  Level Albuquerque Center
Tue 12:09:46 AM 32.5142 -107.7422 101° East 453 521 39,000  Level Albuquerque Center
Tue 12:10:47 AM 32.4925 -107.5969 100° East 452 520 39,000  Level Albuquerque Center
Tue 12:11:49 AM 32.4669 -107.4325 100° East 455 524 39,000  Level Albuquerque Center
Tue 12:12:50 AM 32.4453 -107.2858 100° East 455 524 39,000  Level Albuquerque Center
Tue 12:13:51 AM 32.4206 -107.1247 100° East 452 520 39,000  Level Albuquerque Center
Tue 12:14:52 AM 32.3961 -106.9781 101° East 453 521 39,000  Level Albuquerque Center
Tue 12:15:54 AM 32.3758 -106.8475 100° East 454 522 39,000  Level Albuquerque Center
Tue 12:16:55 AM 32.3528 -106.7019 101° East 454 522 39,000  Level Albuquerque Center
Tue 12:17:56 AM 32.3247 -106.5264 101° East 454 522 39,000  Level Albuquerque Center
Tue 12:18:57 AM 32.3000 -106.3822 101° East 451 519 39,000  Level Albuquerque Center
Tue 12:19:58 AM 32.2761 -106.2356 101° East 453 521 39,000  Level Albuquerque Center
Tue 12:21:00 AM 32.2494 -106.0797 101° East 450 518 39,000  Level Albuquerque Center
Tue 12:22:01 AM 32.2228 -105.9350 102° East 450 518 39,000  Level Albuquerque Center
Tue 12:23:02 AM 32.1925 -105.7911 104° East 451 519 39,000  Level Albuquerque Center
Tue 12:24:03 AM 32.1622 -105.6483 104° East 450 518 39,000  Level Albuquerque Center
Tue 12:25:04 AM 32.1292 -105.4942 104° East 450 518 39,000  Level Albuquerque Center
Tue 12:26:05 AM 32.0983 -105.3508 104° East 451 519 39,000  Level Albuquerque Center
Tue 12:27:07 AM 32.0747 -105.2328 103° East 445 512 39,000  Level Albuquerque Center
Tue 12:28:08 AM 32.0336 -105.0633 106° East 446 513 39,000  Level Albuquerque Center
Tue 12:29:09 AM 32.0103 -104.9197 101° East 446 513 39,000  Level Albuquerque Center
Tue 12:30:10 AM 31.9781 -104.7778 105° East 448 516 39,000  Level Albuquerque Center
Tue 12:31:11 AM 31.9475 -104.6447 105° East 445 512 39,000  Level Albuquerque Center
Tue 12:32:12 AM 31.9186 -104.5044 104° East 444 511 39,000  Level Albuquerque Center
Tue 12:33:13 AM 31.8869 -104.3642 105° East 445 512 39,000 -49 Level Albuquerque Center
Tue 12:34:14 AM 31.8533 -104.2178 105° East 443 510 38,900  Descending Albuquerque Center
Tue 12:35:27 AM 31.8153 -104.0492 105° East 445 512 39,000 45 Climbing Albuquerque Center
Tue 12:36:28 AM 31.7822 -103.9081 105° East 447 514 39,000  Level Albuquerque Center
Tue 12:37:29 AM 31.7464 -103.7478 105° East 447 514 39,000  Level Albuquerque Center
Tue 12:38:30 AM 31.7153 -103.6081 105° East 446 513 39,000  Level Albuquerque Center
Tue 12:39:31 AM 31.6833 -103.4681 105° East 446 513 39,000  Level Albuquerque Center
Tue 12:40:32 AM 31.6481 -103.3183 105° East 447 514 39,000  Level Albuquerque Center
Tue 12:41:33 AM 31.6147 -103.1783 106° East 446 513 39,000  Level Albuquerque Center
Tue 12:42:34 AM 31.5814 -103.0400 106° East 444 511 39,000  Level Albuquerque Center
Tue 12:43:35 AM 31.5489 -102.9000 105° East 445 512 39,000  Level Albuquerque Center
Tue 12:44:36 AM 31.5161 -102.7603 105° East 446 513 39,000  Level Albuquerque Center
Tue 12:45:37 AM 31.4825 -102.6206 106° East 446 513 39,000  Level Albuquerque Center
Tue 12:46:37 AM 31.4522 -102.4942 106° East 446 513 39,000  Level Albuquerque Center
Tue 12:47:38 AM 31.4186 -102.3553 106° East 453 521 39,000  Level Albuquerque Center
Tue 12:48:39 AM 31.3800 -102.1822 105° East 477 549 39,000  Level Albuquerque Center
Tue 12:49:41 AM 31.3481 -102.0414 105° East 461 531 39,000  Level Houston Center
Tue 12:50:41 AM 31.3125 -101.9028 107° East 447 514 39,000 -50 Level Houston Center
Tue 12:51:41 AM 31.2772 -101.7628 106° East 447 514 38,900  Descending Houston Center
Tue 12:52:42 AM 31.2422 -101.6225 106° East 449 517 39,000 50 Climbing Houston Center
Tue 12:53:42 AM 31.2072 -101.4819 106° East 451 519 39,000  Level Houston Center
Tue 12:54:42 AM 31.1711 -101.3344 106° East 452 520 39,000  Level Houston Center
Tue 12:55:42 AM 31.1344 -101.1953 107° East 451 519 39,000  Level Houston Center
Tue 12:56:43 AM 31.1006 -101.0528 105° East 454 522 39,000  Level Houston Center
Tue 12:57:43 AM 31.0650 -100.9125 106° East 453 521 39,000  Level Houston Center
Tue 12:58:43 AM 31.0294 -100.7742 107° East 447 514 39,000 -50 Level Houston Center
Tue 12:59:43 AM 30.9950 -100.6356 106° East 445 512 38,900 -50 Descending Houston Center
Tue 01:00:44 AM 30.9586 -100.4989 107° East 443 510 38,900  Level Houston Center
Tue 01:01:44 AM 30.9242 -100.3631 106° East 437 503 38,900  Level Houston Center
Tue 01:02:44 AM 30.8894 -100.2278 107° East 436 502 38,900 50 Level Houston Center
Tue 01:03:44 AM 30.8550 -100.0925 106° East 435 501 39,000 50 Climbing Houston Center
Tue 01:04:45 AM 30.8194 -99.9581 107° East 433 498 39,000 -50 Level Houston Center
Tue 01:05:45 AM 30.7850 -99.8244 107° East 431 496 38,900 -50 Descending Houston Center
Tue 01:06:45 AM 30.7492 -99.6903 107° East 433 498 38,900 -300 Level Houston Center
Tue 01:07:45 AM 30.7142 -99.5575 107° East 430 495 38,300 -1,190 Descending Houston Center
Tue 01:08:46 AM 30.6781 -99.4194 107° East 441 507 36,500 -2,033 Descending Houston Center
Tue 01:09:46 AM 30.6394 -99.2775 108° East 456 525 34,200 -2,700 Descending Houston Center
Tue 01:10:46 AM 30.6017 -99.1339 107° East 463 533 31,100 -2,900 Descending Houston Center
Tue 01:11:46 AM 30.5658 -99.0067 108° East 466 536 28,400 -2,900 Descending Houston Center
Tue 01:12:46 AM 30.5272 -98.8639 107° East 463 533 25,300 -3,074 Descending Houston Center
Tue 01:13:47 AM 30.4892 -98.7253 108° East 450 518 22,200 -3,025 Descending Houston Center
Tue 01:14:47 AM 30.4522 -98.5897 108° East 439 505 19,200 -2,850 Descending Houston Center
Tue 01:15:47 AM 30.4161 -98.4581 108° East 428 493 16,500 -2,750 Descending Houston Center
Tue 01:16:47 AM 30.3981 -98.3322 99° East 400 460 13,700 -2,826 Descending Houston Center
Tue 01:17:48 AM 30.3786 -98.2133 101° East 378 435 10,800 -1,686 Descending Houston Center
Tue 01:18:48 AM 30.3617 -98.1075 100° East 336 387 10,300 -1,100 Descending Houston Center
Tue 01:19:48 AM 30.3478 -98.0150 100° East 294 338 8,600 -1,800 Descending Houston Center
Tue 01:20:48 AM 30.3333 -97.9269 101° East 282 325 6,700 -1,700 Descending Houston Center
Tue 01:21:48 AM 30.3200 -97.8458 101° East 262 302 5,200 -1,438 Descending Houston Center
Tue 01:22:49 AM 30.3075 -97.7664 100° East 255 293 3,800 -1,339 Descending Houston Center
Tue 01:23:49 AM 30.2942 -97.7000 103° East 229 264 2,500 -1,200 Descending Houston Center
Tue 01:24:49 AM 30.2586 -97.6794 153° Southeast 163 188 1,400 -750 Descending Houston Center
Tue 01:25:49 AM 30.2264 -97.6772 177° South 141 162 1,000 -400 Descending Houston Center
Tue 01:27:00 AM 30.1945 -97.6699 106° East  Level Estimated

Login

Don't have an account? Register now (free) for customized features, flight alerts, and more!